LCGO2: Spring Creek Locust Grove, OK

Data processed at Mon Apr 24 2017 20:54


All information presented herein is the property of the government of the United States of America and may be revised or deleted at any time without prior notice.
Dissemination of this information without the expressed written consent of the Public Affairs Office, Tulsa District U.S. Army Corps of Engineers is strictly prohibited.
These data are gathered electronically and, as presented, have not undergone any form of quality control. These data are not guaranteed to be valid or correct.
Go to home page.
Go to station list.
Go to station map.


Previous Day
Next Day
Current Day


    
SHEF ID:       LCGO2     Spring Creek at Locust Grove
STATION TYPE:  

               PRECIP     STAGE  RIV-FLOW   VOLTAGE  BAT-LOAD
                   in        ft       cfs      volt      volt
              Ccp-Rev   Ccp-Rev   Ccp-Rev   Ccp-Rev   Ccp-Rev
(US/Central)
04/24 00:00      0.00     13.73       392     12.73     12.65
04/24 01:00      0.00     13.75       404     12.73     12.65
04/24 02:00      0.00     13.73       392     12.73     12.65
04/24 03:00      0.00     13.74       398     12.65     12.57
04/24 04:00      0.00     13.74       398     12.65     12.57
04/24 05:00      0.00     13.71       381     12.65     12.57
04/24 06:00      0.00     13.71       381     12.65     12.57
04/24 07:00      0.00     13.69       370     12.65     12.57
04/24 08:00      0.00     13.68       364     13.44     13.05
04/24 09:00      0.00     13.69       370     13.53     13.29
04/24 10:00      0.00     13.67       359     13.68     14.00
04/24 11:00      0.00     13.63       336     13.92     14.08
04/24 12:00      0.00     13.64       342     13.76     13.84
04/24 13:00      0.00     13.63       336     13.68     13.53
04/24 14:00      0.00     13.61       325     13.68     13.44
04/24 15:00      0.00     13.62       331     13.44     13.84
04/24 16:00      0.00     13.61       325     13.76     12.81
04/24 17:00      0.00     13.59       314     13.68     12.81
04/24 18:00      0.00     13.57       302     13.92     12.81
04/24 19:00      0.00     13.57       302     13.21     12.81
04/24 20:00      0.00     13.57       302     12.81     12.73
04/24 21:00      ----      ----      ----      ----      ----
04/24 22:00      ----      ----      ----      ----      ----
04/24 23:00      ----      ----      ----      ----      ----